Time;durP1;ratioP1;P1;durP2;ratioP2;P2;SDS_P1;SDS_P2;PMS_P1;PMS_P2;Temp;Humidity;BMP_temperature;BMP_pressure;BME280_temperature;BME280_humidity;BME280_pressure;Samples;Min_cycle;Max_cycle;Signal;HPM_P1;HPM_P2
2022/08/21 00:02:17;;;;;;;4.47;2.28;;;;;;;;;;4960386;28;20513;-68
2022/08/21 00:04:43;;;;;;;7.47;2.20;;;;;;;;;;4959701;28;20042;-68
2022/08/21 00:07:08;;;;;;;5.78;2.20;;;;;;;;;;4931588;28;21493;-68
2022/08/21 00:09:33;;;;;;;11.52;3.10;;;;;;;;;;4961483;28;20035;-70
2022/08/21 00:11:59;;;;;;;5.63;2.35;;;;;;;;;;4964558;28;20133;-68
2022/08/21 00:14:24;;;;;;;6.30;2.33;;;;;;;;;;4964309;28;20717;-68
2022/08/21 00:16:50;;;;;;;4.57;2.15;;;;;;;;;;4961037;28;20868;-69
2022/08/21 00:19:15;;;;;;;6.43;2.22;;;;;;;;;;4962687;28;20118;-69
2022/08/21 00:21:41;;;;;;;6.47;2.45;;;;;;;;;;4961276;28;21697;-69
2022/08/21 00:24:06;;;;;;;8.45;2.60;;;;;;;;;;4960133;28;20054;-69
2022/08/21 00:26:32;;;;;;;7.63;2.70;;;;;;;;;;4963407;28;20041;-69
2022/08/21 00:28:57;;;;;;;6.97;2.78;;;;;;;;;;4966072;28;20446;-68
2022/08/21 00:31:23;;;;;;;8.77;2.70;;;;;;;;;;4960775;28;20569;-68
2022/08/21 00:33:48;;;;;;;6.03;2.42;;;;;;;;;;4962461;28;20066;-69
2022/08/21 00:36:14;;;;;;;5.70;2.17;;;;;;;;;;4948420;28;20039;-68
2022/08/21 00:38:40;;;;;;;5.20;2.20;;;;;;;;;;4960726;28;20046;-67
2022/08/21 00:41:08;;;;;;;5.53;2.50;;;;;;;;;;4965002;28;20117;-68
2022/08/21 00:43:36;;;;;;;8.10;2.78;;;;;;;;;;4965928;28;20058;-69
2022/08/21 00:46:04;;;;;;;8.27;2.05;;;;;;;;;;4959314;28;20254;-68
2022/08/21 00:48:30;;;;;;;8.10;2.47;;;;;;;;;;4946670;28;20074;-68
2022/08/21 00:51:02;;;;;;;9.18;2.42;;;;;;;;;;4962618;28;20049;-67
2022/08/21 00:53:28;;;;;;;8.18;2.28;;;;;;;;;;4958925;28;20530;-70
2022/08/21 00:55:55;;;;;;;6.72;2.38;;;;;;;;;;4958160;28;20038;-67
2022/08/21 00:58:20;;;;;;;5.18;2.15;;;;;;;;;;4959862;28;20035;-67
2022/08/21 01:00:48;;;;;;;5.78;2.20;;;;;;;;;;4962871;28;20034;-67
2022/08/21 01:03:18;;;;;;;9.27;2.22;;;;;;;;;;4966950;28;20097;-67
2022/08/21 01:05:45;;;;;;;6.68;2.30;;;;;;;;;;4967365;28;20039;-70
2022/08/21 01:08:12;;;;;;;8.18;2.00;;;;;;;;;;4949351;28;20503;-68
2022/08/21 01:10:37;;;;;;;7.80;1.88;;;;;;;;;;4966232;28;20046;-68
2022/08/21 01:13:07;;;;;;;5.97;2.20;;;;;;;;;;4967289;28;20041;-69
2022/08/21 01:15:35;;;;;;;10.65;1.90;;;;;;;;;;4965186;28;20380;-69
2022/08/21 01:18:03;;;;;;;8.07;2.03;;;;;;;;;;4965847;28;20057;-69
2022/08/21 01:20:29;;;;;;;4.68;2.13;;;;;;;;;;4947381;28;20668;-67
2022/08/21 01:22:54;;;;;;;5.03;2.22;;;;;;;;;;4962697;28;20045;-70
2022/08/21 01:25:20;;;;;;;5.13;2.17;;;;;;;;;;4965781;28;20041;-69
2022/08/21 01:27:46;;;;;;;5.63;1.95;;;;;;;;;;4964525;28;20027;-68
2022/08/21 01:30:19;;;;;;;5.00;2.17;;;;;;;;;;4967045;28;20038;-68
2022/08/21 01:32:45;;;;;;;6.47;2.10;;;;;;;;;;4965373;28;20042;-70
2022/08/21 01:35:13;;;;;;;7.18;2.42;;;;;;;;;;4966532;28;20039;-69
2022/08/21 01:37:39;;;;;;;5.03;1.95;;;;;;;;;;4965283;28;20050;-69
2022/08/21 01:40:07;;;;;;;6.43;2.03;;;;;;;;;;4966709;28;20546;-69
2022/08/21 01:42:33;;;;;;;6.68;2.38;;;;;;;;;;4967421;28;20086;-69
2022/08/21 01:44:58;;;;;;;5.65;2.13;;;;;;;;;;4963283;28;20035;-68
2022/08/21 01:47:24;;;;;;;7.97;2.30;;;;;;;;;;4964806;28;20077;-68
2022/08/21 01:49:49;;;;;;;8.80;2.38;;;;;;;;;;4965473;28;20513;-67
2022/08/21 01:52:15;;;;;;;7.13;2.00;;;;;;;;;;4944483;28;20027;-69
2022/08/21 01:54:41;;;;;;;7.68;2.20;;;;;;;;;;4966297;28;20188;-70
2022/08/21 01:57:07;;;;;;;7.85;2.38;;;;;;;;;;4966731;28;21145;-68
2022/08/21 01:59:34;;;;;;;7.82;2.65;;;;;;;;;;4964530;28;20039;-69
2022/08/21 02:02:00;;;;;;;6.45;2.33;;;;;;;;;;4962557;28;20054;-68
2022/08/21 02:04:26;;;;;;;9.85;2.05;;;;;;;;;;4967080;28;20027;-70
2022/08/21 02:06:51;;;;;;;6.50;2.15;;;;;;;;;;4966358;28;20126;-69
2022/08/21 02:09:17;;;;;;;7.25;2.15;;;;;;;;;;4964509;28;20035;-69
2022/08/21 02:11:43;;;;;;;6.47;2.10;;;;;;;;;;4965537;28;20034;-69
2022/08/21 02:14:11;;;;;;;6.45;2.08;;;;;;;;;;4962320;28;20043;-69
2022/08/21 02:16:37;;;;;;;6.40;2.10;;;;;;;;;;4967412;28;20042;-69
2022/08/21 02:19:03;;;;;;;5.38;2.20;;;;;;;;;;4965804;28;21070;-69
2022/08/21 02:21:28;;;;;;;6.78;2.80;;;;;;;;;;4966467;28;20125;-69
2022/08/21 02:23:54;;;;;;;8.20;2.33;;;;;;;;;;4963839;28;20090;-69
2022/08/21 02:26:19;;;;;;;7.68;2.40;;;;;;;;;;4963868;28;20086;-69
2022/08/21 02:28:44;;;;;;;5.68;2.40;;;;;;;;;;4963627;28;20066;-69
2022/08/21 02:31:10;;;;;;;7.72;2.45;;;;;;;;;;4965580;28;20030;-69
2022/08/21 02:33:36;;;;;;;5.93;2.40;;;;;;;;;;4966127;28;20043;-68
2022/08/21 02:36:02;;;;;;;5.80;1.95;;;;;;;;;;4957834;28;20153;-69
2022/08/21 02:38:30;;;;;;;6.22;2.30;;;;;;;;;;4966105;28;20047;-68
2022/08/21 02:40:56;;;;;;;14.70;2.75;;;;;;;;;;4963968;28;20735;-68
2022/08/21 02:43:24;;;;;;;9.45;3.13;;;;;;;;;;4963289;28;20101;-68
2022/08/21 02:45:50;;;;;;;7.03;2.38;;;;;;;;;;4967600;28;20035;-69
2022/08/21 02:48:19;;;;;;;10.43;2.40;;;;;;;;;;4967134;28;20045;-68
2022/08/21 02:50:52;;;;;;;9.80;2.70;;;;;;;;;;4965481;28;20039;-67
2022/08/21 02:53:18;;;;;;;6.10;2.70;;;;;;;;;;4963674;28;20506;-69
2022/08/21 02:55:46;;;;;;;5.97;2.53;;;;;;;;;;4966910;28;20041;-69
2022/08/21 02:58:12;;;;;;;6.18;2.30;;;;;;;;;;4963994;28;20499;-68
2022/08/21 03:00:38;;;;;;;7.65;2.47;;;;;;;;;;4961577;28;20030;-69
2022/08/21 03:03:05;;;;;;;5.82;2.42;;;;;;;;;;4966917;28;20499;-68
2022/08/21 03:05:31;;;;;;;8.02;2.80;;;;;;;;;;4962337;28;20515;-68
2022/08/21 03:07:58;;;;;;;9.23;2.72;;;;;;;;;;4962748;28;20031;-69
2022/08/21 03:10:24;;;;;;;8.75;2.55;;;;;;;;;;4948097;28;20109;-68
2022/08/21 03:12:50;;;;;;;5.95;2.50;;;;;;;;;;4966537;28;20061;-69
2022/08/21 03:15:19;;;;;;;6.65;2.47;;;;;;;;;;4965773;28;20474;-69
2022/08/21 03:17:46;;;;;;;7.38;2.58;;;;;;;;;;4964156;28;20042;-68
2022/08/21 03:20:14;;;;;;;5.70;2.50;;;;;;;;;;4964537;28;20123;-69
2022/08/21 03:22:40;;;;;;;5.43;2.50;;;;;;;;;;4949564;28;20035;-68
2022/08/21 03:25:06;;;;;;;7.88;2.80;;;;;;;;;;4966229;28;20045;-69
2022/08/21 03:27:31;;;;;;;6.30;2.50;;;;;;;;;;4966525;28;20067;-69
2022/08/21 03:29:57;;;;;;;11.25;2.65;;;;;;;;;;4963674;28;20081;-69
2022/08/21 03:32:23;;;;;;;6.80;2.67;;;;;;;;;;4965191;28;20571;-68
2022/08/21 03:34:50;;;;;;;4.35;2.30;;;;;;;;;;4964873;28;20061;-68
2022/08/21 03:37:16;;;;;;;6.82;2.83;;;;;;;;;;4957764;28;20026;-69
2022/08/21 03:39:41;;;;;;;6.63;2.70;;;;;;;;;;4965138;28;20026;-69
2022/08/21 03:42:08;;;;;;;8.82;2.58;;;;;;;;;;4966251;28;20039;-69
2022/08/21 03:44:34;;;;;;;7.45;2.80;;;;;;;;;;4962418;28;20043;-69
2022/08/21 03:47:00;;;;;;;7.43;2.65;;;;;;;;;;4963508;28;20264;-69
2022/08/21 03:49:26;;;;;;;8.38;2.50;;;;;;;;;;4965118;28;20421;-68
2022/08/21 03:51:51;;;;;;;7.38;2.38;;;;;;;;;;4963847;28;20042;-69
2022/08/21 03:54:17;;;;;;;4.70;2.25;;;;;;;;;;4960965;28;20617;-69
2022/08/21 03:56:42;;;;;;;4.30;2.20;;;;;;;;;;4964466;28;20352;-69
2022/08/21 03:59:08;;;;;;;5.95;2.40;;;;;;;;;;4960381;28;20043;-70
2022/08/21 04:01:33;;;;;;;5.00;2.35;;;;;;;;;;4967124;28;20057;-69
2022/08/21 04:03:59;;;;;;;5.63;2.22;;;;;;;;;;4965273;28;20714;-67
2022/08/21 04:06:26;;;;;;;7.47;2.60;;;;;;;;;;4962765;28;20069;-68
2022/08/21 04:08:52;;;;;;;5.57;2.60;;;;;;;;;;4965473;28;20806;-67
2022/08/21 04:11:18;;;;;;;6.35;2.70;;;;;;;;;;4964600;28;20066;-67
2022/08/21 04:13:44;;;;;;;6.10;2.30;;;;;;;;;;4965047;28;20471;-69
2022/08/21 04:16:09;;;;;;;7.88;2.58;;;;;;;;;;4966765;28;20045;-69
2022/08/21 04:18:35;;;;;;;5.28;2.60;;;;;;;;;;4963408;28;20075;-69
2022/08/21 04:21:02;;;;;;;7.35;2.63;;;;;;;;;;4963165;28;20043;-68
2022/08/21 04:23:27;;;;;;;8.18;2.70;;;;;;;;;;4961184;28;20050;-69
2022/08/21 04:25:55;;;;;;;11.30;2.90;;;;;;;;;;4961134;28;20455;-68
2022/08/21 04:28:22;;;;;;;5.13;2.60;;;;;;;;;;4962894;28;20026;-68
2022/08/21 04:30:47;;;;;;;5.13;2.50;;;;;;;;;;4962907;28;20041;-69
2022/08/21 04:33:13;;;;;;;6.72;2.65;;;;;;;;;;4963479;28;20035;-68
2022/08/21 04:35:39;;;;;;;7.80;3.55;;;;;;;;;;4964149;28;20311;-68
2022/08/21 04:38:04;;;;;;;4.18;2.42;;;;;;;;;;4965534;28;20042;-69
2022/08/21 04:40:30;;;;;;;8.88;2.53;;;;;;;;;;4969027;28;20039;-68
2022/08/21 04:43:00;;;;;;;6.28;2.80;;;;;;;;;;4967532;28;20054;-69
2022/08/21 04:45:33;;;;;;;4.97;2.10;;;;;;;;;;4948099;28;20046;-69
2022/08/21 04:48:01;;;;;;;5.97;2.40;;;;;;;;;;4968373;28;20499;-68
2022/08/21 04:50:36;;;;;;;6.40;2.55;;;;;;;;;;4968927;28;20042;-68
2022/08/21 04:53:01;;;;;;;8.05;2.55;;;;;;;;;;4969108;28;20046;-68
2022/08/21 04:55:28;;;;;;;7.28;2.33;;;;;;;;;;4971689;28;20038;-67
2022/08/21 04:57:55;;;;;;;6.78;2.40;;;;;;;;;;4966494;28;20026;-67
2022/08/21 05:00:24;;;;;;;3.88;2.38;;;;;;;;;;4960732;28;20039;-69
2022/08/21 05:02:54;;;;;;;6.32;2.53;;;;;;;;;;4968109;28;20051;-68
2022/08/21 05:05:19;;;;;;;5.47;2.30;;;;;;;;;;4963879;28;20475;-69
2022/08/21 05:07:46;;;;;;;4.38;2.50;;;;;;;;;;4955544;28;20053;-68
2022/08/21 05:10:13;;;;;;;7.85;3.05;;;;;;;;;;4967010;28;20089;-69
2022/08/21 05:12:41;;;;;;;7.60;2.58;;;;;;;;;;4969478;28;20046;-67
2022/08/21 05:15:07;;;;;;;5.05;2.28;;;;;;;;;;4965015;28;20105;-67
2022/08/21 05:17:32;;;;;;;8.50;2.75;;;;;;;;;;4968603;28;20034;-70
2022/08/21 05:19:58;;;;;;;7.38;2.40;;;;;;;;;;4970177;28;20042;-67
2022/08/21 05:22:24;;;;;;;5.25;2.40;;;;;;;;;;4965437;28;20146;-70
2022/08/21 05:24:50;;;;;;;5.88;2.45;;;;;;;;;;4966173;28;20038;-69
2022/08/21 05:27:19;;;;;;;8.25;2.35;;;;;;;;;;4964694;28;20235;-70
2022/08/21 05:29:47;;;;;;;7.38;2.60;;;;;;;;;;4968231;28;20064;-68
2022/08/21 05:32:13;;;;;;;12.65;2.88;;;;;;;;;;4968225;28;20070;-69
2022/08/21 05:34:39;;;;;;;6.90;2.70;;;;;;;;;;4952101;28;20035;-69
2022/08/21 05:37:05;;;;;;;4.40;2.60;;;;;;;;;;4970876;28;20113;-69
2022/08/21 05:39:31;;;;;;;5.38;2.72;;;;;;;;;;4970410;28;20780;-68
2022/08/21 05:42:02;;;;;;;7.07;2.97;;;;;;;;;;4970785;28;20517;-68
2022/08/21 05:44:27;;;;;;;6.95;2.63;;;;;;;;;;4959407;28;20050;-69
2022/08/21 05:46:53;;;;;;;12.20;3.22;;;;;;;;;;4949848;28;20043;-69
2022/08/21 05:49:18;;;;;;;8.48;2.30;;;;;;;;;;4965728;28;20137;-68
2022/08/21 05:51:44;;;;;;;9.18;2.90;;;;;;;;;;4970411;28;20034;-69
2022/08/21 05:54:10;;;;;;;8.35;2.60;;;;;;;;;;4965611;28;20418;-68
2022/08/21 05:56:37;;;;;;;6.28;2.78;;;;;;;;;;4965063;28;20053;-68
2022/08/21 05:59:02;;;;;;;7.80;2.63;;;;;;;;;;4951022;28;20039;-68
2022/08/21 06:01:28;;;;;;;7.22;2.67;;;;;;;;;;4966620;28;20389;-69
2022/08/21 06:03:53;;;;;;;7.00;2.40;;;;;;;;;;4970618;28;20030;-68
2022/08/21 06:06:19;;;;;;;6.43;2.88;;;;;;;;;;4970977;28;20046;-68
2022/08/21 06:08:45;;;;;;;6.82;2.60;;;;;;;;;;4971473;28;20034;-69
2022/08/21 06:11:10;;;;;;;5.60;2.60;;;;;;;;;;4968505;28;20530;-68
2022/08/21 06:13:37;;;;;;;6.97;2.90;;;;;;;;;;4968824;28;20202;-68
2022/08/21 06:16:13;;;;;;;6.68;3.28;;;;;;;;;;4965486;28;20029;-69
2022/08/21 06:18:40;;;;;;;9.13;2.67;;;;;;;;;;4967559;28;20050;-69
2022/08/21 06:21:06;;;;;;;8.88;2.75;;;;;;;;;;4968012;28;20074;-69
2022/08/21 06:23:32;;;;;;;7.78;2.83;;;;;;;;;;4965913;28;20039;-69
2022/08/21 06:25:58;;;;;;;6.07;2.60;;;;;;;;;;4968729;28;20046;-69
2022/08/21 06:28:23;;;;;;;6.00;2.35;;;;;;;;;;4967269;28;20073;-69
2022/08/21 06:30:49;;;;;;;8.60;2.67;;;;;;;;;;4965161;28;20039;-69
2022/08/21 06:33:14;;;;;;;8.27;2.63;;;;;;;;;;4967085;28;20039;-67
2022/08/21 06:35:40;;;;;;;10.35;2.90;;;;;;;;;;4963339;28;20035;-67
2022/08/21 06:38:05;;;;;;;5.97;2.60;;;;;;;;;;4966771;28;20039;-69
2022/08/21 06:40:31;;;;;;;7.80;2.72;;;;;;;;;;4964950;28;20035;-68
2022/08/21 06:42:58;;;;;;;10.07;2.88;;;;;;;;;;4968581;28;20073;-70
2022/08/21 06:45:24;;;;;;;6.43;2.90;;;;;;;;;;4948700;28;20043;-70
2022/08/21 06:47:50;;;;;;;8.05;3.20;;;;;;;;;;4931807;28;20054;-69
2022/08/21 06:50:15;;;;;;;5.43;2.70;;;;;;;;;;4947245;28;20046;-67
2022/08/21 06:52:41;;;;;;;7.30;2.80;;;;;;;;;;4963511;28;20082;-69
2022/08/21 06:55:09;;;;;;;5.25;2.78;;;;;;;;;;4962481;28;20033;-69
2022/08/21 06:57:35;;;;;;;11.18;3.72;;;;;;;;;;4963051;28;20038;-69
2022/08/21 07:00:04;;;;;;;7.15;2.70;;;;;;;;;;4963689;28;20038;-68
2022/08/21 07:02:30;;;;;;;8.55;3.10;;;;;;;;;;4961603;28;20054;-68
2022/08/21 07:04:55;;;;;;;7.35;3.50;;;;;;;;;;4964469;28;20128;-69
2022/08/21 07:07:21;;;;;;;6.47;3.40;;;;;;;;;;4964145;28;20528;-69
2022/08/21 07:09:46;;;;;;;8.35;3.00;;;;;;;;;;4968256;28;20031;-69
2022/08/21 07:12:14;;;;;;;8.15;3.15;;;;;;;;;;4964763;28;20038;-67
2022/08/21 07:14:40;;;;;;;7.32;3.00;;;;;;;;;;4951706;28;20046;-69
2022/08/21 07:17:05;;;;;;;10.18;3.28;;;;;;;;;;4960123;28;20732;-69
2022/08/21 07:19:30;;;;;;;9.85;3.28;;;;;;;;;;4946958;28;20077;-67
2022/08/21 07:21:59;;;;;;;8.60;3.30;;;;;;;;;;4967706;28;20033;-68
2022/08/21 07:24:25;;;;;;;5.50;3.15;;;;;;;;;;4961763;28;20043;-68
2022/08/21 07:26:51;;;;;;;6.20;2.80;;;;;;;;;;4965427;28;20031;-68
2022/08/21 07:29:17;;;;;;;7.80;2.70;;;;;;;;;;4949094;28;20042;-68
2022/08/21 07:31:42;;;;;;;5.38;2.75;;;;;;;;;;4963451;28;20134;-68
2022/08/21 07:34:08;;;;;;;9.20;2.97;;;;;;;;;;4964129;28;20129;-68
2022/08/21 07:36:33;;;;;;;10.27;3.22;;;;;;;;;;4960975;28;20702;-68
2022/08/21 07:38:59;;;;;;;10.18;3.15;;;;;;;;;;4962924;28;20042;-68
2022/08/21 07:41:28;;;;;;;7.18;2.90;;;;;;;;;;4962288;28;20035;-67
2022/08/21 07:43:54;;;;;;;9.60;3.10;;;;;;;;;;4962665;28;20046;-68
2022/08/21 07:46:20;;;;;;;7.53;3.30;;;;;;;;;;4945572;28;20112;-67
2022/08/21 07:48:45;;;;;;;8.07;3.60;;;;;;;;;;4967993;28;20018;-68
2022/08/21 07:51:14;;;;;;;7.10;2.60;;;;;;;;;;4966587;28;20092;-67
2022/08/21 07:53:40;;;;;;;8.70;3.22;;;;;;;;;;4965452;28;20046;-68
2022/08/21 07:56:08;;;;;;;9.18;2.70;;;;;;;;;;4951380;28;20070;-68
2022/08/21 07:58:34;;;;;;;11.43;3.40;;;;;;;;;;4965558;28;20047;-68
2022/08/21 08:00:59;;;;;;;8.93;3.15;;;;;;;;;;4961564;28;20051;-67
2022/08/21 08:03:25;;;;;;;9.57;3.17;;;;;;;;;;4960534;28;20043;-68
2022/08/21 08:05:51;;;;;;;7.80;3.42;;;;;;;;;;4963855;28;20058;-68
2022/08/21 08:08:16;;;;;;;8.73;3.50;;;;;;;;;;4964499;28;20042;-68
2022/08/21 08:10:42;;;;;;;8.77;4.10;;;;;;;;;;4960789;28;20066;-68
2022/08/21 08:13:08;;;;;;;9.07;4.25;;;;;;;;;;4966174;28;20368;-68
2022/08/21 08:15:33;;;;;;;12.40;4.07;;;;;;;;;;4956889;28;20059;-68
2022/08/21 08:17:59;;;;;;;7.60;3.63;;;;;;;;;;4961504;28;20034;-67
2022/08/21 08:20:26;;;;;;;8.90;4.05;;;;;;;;;;4961973;28;20089;-67
2022/08/21 08:22:52;;;;;;;8.07;3.47;;;;;;;;;;4962707;28;20054;-67
2022/08/21 08:25:19;;;;;;;8.65;4.00;;;;;;;;;;4963036;28;20039;-68
2022/08/21 08:27:44;;;;;;;7.57;3.67;;;;;;;;;;4961114;28;20023;-70
2022/08/21 08:30:12;;;;;;;7.53;3.28;;;;;;;;;;4963071;28;20043;-67
2022/08/21 08:32:39;;;;;;;13.15;4.18;;;;;;;;;;4962573;28;20575;-67
2022/08/21 08:35:06;;;;;;;8.32;3.92;;;;;;;;;;4959210;28;20043;-67
2022/08/21 08:37:33;;;;;;;13.07;4.97;;;;;;;;;;4960300;28;20027;-67
2022/08/21 08:39:59;;;;;;;14.60;4.13;;;;;;;;;;4965611;28;20031;-68
2022/08/21 08:42:29;;;;;;;9.57;4.55;;;;;;;;;;4949639;28;20035;-69
2022/08/21 08:45:06;;;;;;;8.02;4.07;;;;;;;;;;4962816;28;20203;-69
2022/08/21 08:47:37;;;;;;;8.20;4.28;;;;;;;;;;4961047;28;20054;-68
2022/08/21 08:50:16;;;;;;;7.97;4.05;;;;;;;;;;4961838;28;20538;-68
2022/08/21 08:52:48;;;;;;;9.07;4.35;;;;;;;;;;4963487;28;20046;-68
2022/08/21 08:55:25;;;;;;;12.80;3.60;;;;;;;;;;4962872;28;20038;-68
2022/08/21 08:57:52;;;;;;;10.82;3.78;;;;;;;;;;4965026;28;20058;-69
2022/08/21 09:00:20;;;;;;;8.57;3.63;;;;;;;;;;4959842;28;20568;-69
2022/08/21 09:02:46;;;;;;;8.32;3.17;;;;;;;;;;4962092;28;20660;-68
2022/08/21 09:05:28;;;;;;;6.40;2.13;;;;;;;;;;4962028;28;20054;-68
2022/08/21 09:08:41;;;;;;;6.35;2.50;;;;;;;;;;4961289;28;20039;-68
2022/08/21 09:11:28;;;;;;;7.78;2.85;;;;;;;;;;4932953;28;20454;-68
2022/08/21 09:13:59;;;;;;;5.13;2.38;;;;;;;;;;4951331;28;20102;-68
2022/08/21 09:17:12;;;;;;;8.02;2.70;;;;;;;;;;4958547;28;20027;-69
2022/08/21 09:20:06;;;;;;;;;;;;;;;;;;4959935;28;20051;-67
2022/08/21 09:22:39;;;;;;;6.28;2.50;;;;;;;;;;4962277;28;19973;-69
2022/08/21 09:25:10;;;;;;;;;;;;;;;;;;4966686;28;20430;-68
2022/08/21 09:27:36;;;;;;;8.52;2.67;;;;;;;;;;4966408;28;20148;-69
2022/08/21 09:30:05;;;;;;;7.10;2.60;;;;;;;;;;4968465;28;20118;-68
2022/08/21 09:32:33;;;;;;;7.10;2.35;;;;;;;;;;4962660;28;20516;-68
2022/08/21 09:35:14;;;;;;;7.10;2.80;;;;;;;;;;4966661;28;20494;-68
2022/08/21 09:37:58;;;;;;;6.70;2.83;;;;;;;;;;4964323;28;20050;-68
2022/08/21 09:40:23;;;;;;;7.72;2.47;;;;;;;;;;4966552;28;20129;-68
2022/08/21 09:43:19;;;;;;;6.97;2.50;;;;;;;;;;4965602;28;20491;-68
2022/08/21 09:45:45;;;;;;;6.28;2.53;;;;;;;;;;4967694;28;20506;-68
2022/08/21 09:48:24;;;;;;;6.50;2.67;;;;;;;;;;4964400;28;20042;-67
2022/08/21 09:50:50;;;;;;;8.63;2.53;;;;;;;;;;4965936;28;20038;-68
2022/08/21 09:53:42;;;;;;;8.98;2.40;;;;;;;;;;4963230;28;20490;-68
2022/08/21 09:59:33;;;;;;;6.05;2.25;;;;;;;;;;4962004;28;20423;-67
2022/08/21 10:02:17;;;;;;;9.13;2.70;;;;;;;;;;4963072;28;20066;-67
2022/08/21 10:04:50;;;;;;;6.95;2.47;;;;;;;;;;4965754;28;20054;-68
2022/08/21 10:07:19;;;;;;;6.15;2.42;;;;;;;;;;4964031;28;20487;-67
2022/08/21 10:09:44;;;;;;;8.77;2.60;;;;;;;;;;4949364;28;20031;-67
2022/08/21 10:12:20;;;;;;;8.20;2.40;;;;;;;;;;4967137;28;20046;-67
2022/08/21 10:15:19;;;;;;;5.00;2.10;;;;;;;;;;4965127;28;20126;-69
2022/08/21 10:17:53;;;;;;;5.15;2.50;;;;;;;;;;4964118;28;20042;-67
2022/08/21 10:20:49;;;;;;;5.15;2.30;;;;;;;;;;4965768;28;20049;-67
2022/08/21 10:23:21;;;;;;;8.27;3.55;;;;;;;;;;4956681;28;20085;-67
2022/08/21 10:26:01;;;;;;;10.82;2.97;;;;;;;;;;4967621;28;20035;-67
2022/08/21 10:28:43;;;;;;;8.55;2.50;;;;;;;;;;4967812;28;20023;-68
2022/08/21 10:31:42;;;;;;;7.55;2.78;;;;;;;;;;4949937;28;20082;-68
2022/08/21 10:34:07;;;;;;;7.32;2.40;;;;;;;;;;4965534;28;20042;-68
2022/08/21 10:36:42;;;;;;;6.57;2.40;;;;;;;;;;4966538;28;20137;-69
2022/08/21 10:39:26;;;;;;;4.35;1.73;;;;;;;;;;4963723;28;20283;-68
2022/08/21 10:42:03;;;;;;;6.65;2.40;;;;;;;;;;4963385;28;20070;-68
2022/08/21 10:44:48;;;;;;;3.78;1.67;;;;;;;;;;4963790;28;20046;-68
2022/08/21 10:47:46;;;;;;;6.25;2.00;;;;;;;;;;4965704;28;20042;-67
2022/08/21 10:50:25;;;;;;;4.03;2.03;;;;;;;;;;4964806;28;20050;-67
2022/08/21 10:52:56;;;;;;;4.95;2.25;;;;;;;;;;4964262;28;20047;-67
2022/08/21 10:55:30;;;;;;;5.53;2.25;;;;;;;;;;4964398;28;20097;-67
2022/08/21 10:58:03;;;;;;;5.22;2.03;;;;;;;;;;4963339;28;20033;-67
2022/08/21 11:00:50;;;;;;;8.85;2.10;;;;;;;;;;4961807;28;20042;-67
2022/08/21 11:03:31;;;;;;;5.53;2.20;;;;;;;;;;4966360;28;20046;-66
2022/08/21 11:06:09;;;;;;;5.38;1.98;;;;;;;;;;4961609;28;20093;-66
2022/08/21 11:08:40;;;;;;;4.47;2.00;;;;;;;;;;4960417;28;20511;-70
2022/08/21 11:11:21;;;;;;;5.63;1.83;;;;;;;;;;4959981;28;20043;-67
2022/08/21 11:13:51;;;;;;;9.20;2.40;;;;;;;;;;4966575;28;20042;-67
2022/08/21 11:16:42;;;;;;;5.80;2.00;;;;;;;;;;4959320;28;20029;-68
2022/08/21 11:19:15;;;;;;;5.25;1.90;;;;;;;;;;4960090;28;20130;-69
2022/08/21 11:22:02;;;;;;;5.28;2.13;;;;;;;;;;4955595;28;20058;-69
2022/08/21 11:24:39;;;;;;;6.45;2.22;;;;;;;;;;4958792;28;20050;-67
2022/08/21 11:27:26;;;;;;;5.85;2.20;;;;;;;;;;4963870;28;20031;-68
2022/08/21 11:29:57;;;;;;;6.22;2.40;;;;;;;;;;4962842;28;20128;-69
2022/08/21 11:32:41;;;;;;;5.07;1.80;;;;;;;;;;4958791;28;20043;-69
2022/08/21 11:35:32;;;;;;;4.25;2.33;;;;;;;;;;4958977;28;20108;-68
2022/08/21 11:37:58;;;;;;;4.10;2.08;;;;;;;;;;4957896;28;20408;-68
2022/08/21 11:40:41;;;;;;;6.15;2.25;;;;;;;;;;4957955;28;20046;-66
2022/08/21 11:43:34;;;;;;;4.13;2.00;;;;;;;;;;4955911;28;20045;-67
2022/08/21 11:46:30;;;;;;;5.13;2.20;;;;;;;;;;4952806;28;20333;-68
2022/08/21 11:49:25;;;;;;;6.93;2.45;;;;;;;;;;4966017;28;20043;-69
2022/08/21 11:52:10;;;;;;;5.15;2.30;;;;;;;;;;4965503;28;20042;-69
2022/08/21 11:54:53;;;;;;;12.63;2.10;;;;;;;;;;4959463;28;20879;-65
2022/08/21 11:57:43;;;;;;;5.88;2.28;;;;;;;;;;4958634;28;20483;-68
2022/08/21 12:00:30;;;;;;;5.38;2.10;;;;;;;;;;4957123;28;20150;-67
2022/08/21 12:03:05;;;;;;;5.90;1.85;;;;;;;;;;4960842;28;20037;-67
2022/08/21 12:05:34;;;;;;;6.15;2.03;;;;;;;;;;4960357;28;20549;-69
2022/08/21 12:08:14;;;;;;;4.53;1.92;;;;;;;;;;4956929;28;20078;-67
2022/08/21 12:10:46;;;;;;;5.15;2.22;;;;;;;;;;4954713;28;20823;-67
2022/08/21 12:13:54;;;;;;;4.18;1.90;;;;;;;;;;4957781;28;20169;-66
2022/08/21 12:16:41;;;;;;;4.15;1.80;;;;;;;;;;4945922;28;20042;-66
2022/08/21 12:19:24;;;;;;;4.88;1.85;;;;;;;;;;4964814;28;20039;-68
2022/08/21 12:21:51;;;;;;;6.82;2.45;;;;;;;;;;4958437;28;20142;-66
2022/08/21 12:24:33;;;;;;;5.35;1.92;;;;;;;;;;4961984;28;20061;-67
2022/08/21 12:27:29;;;;;;;6.28;2.28;;;;;;;;;;4954349;28;20492;-67
2022/08/21 12:30:18;;;;;;;4.53;1.90;;;;;;;;;;4935450;28;20067;-66
2022/08/21 12:32:53;;;;;;;5.88;2.10;;;;;;;;;;4956160;28;20081;-67
2022/08/21 12:35:24;;;;;;;4.05;1.98;;;;;;;;;;4955194;28;20510;-67
2022/08/21 12:37:56;;;;;;;6.53;2.17;;;;;;;;;;4958353;28;20035;-68
2022/08/21 12:40:36;;;;;;;4.53;2.03;;;;;;;;;;4959758;28;20043;-67
2022/08/21 12:43:04;;;;;;;5.70;2.10;;;;;;;;;;4959067;28;20089;-69
2022/08/21 12:45:48;;;;;;;4.88;1.95;;;;;;;;;;4961243;28;20066;-67
2022/08/21 12:48:19;;;;;;;7.13;2.20;;;;;;;;;;4960243;28;20054;-67
2022/08/21 12:50:54;;;;;;;3.93;1.80;;;;;;;;;;4966916;28;20129;-67
2022/08/21 12:53:35;;;;;;;4.50;1.98;;;;;;;;;;4962513;28;20046;-66
2022/08/21 12:56:03;;;;;;;4.68;2.33;;;;;;;;;;4962028;28;20043;-67
2022/08/21 12:58:30;;;;;;;7.03;2.30;;;;;;;;;;4968106;28;20030;-66
2022/08/21 13:01:02;;;;;;;5.47;1.77;;;;;;;;;;4965168;28;20093;-67
2022/08/21 13:03:28;;;;;;;5.93;2.10;;;;;;;;;;4970519;28;20042;-67
2022/08/21 13:05:54;;;;;;;3.85;2.00;;;;;;;;;;4965609;28;20035;-67
2022/08/21 13:08:23;;;;;;;5.28;2.00;;;;;;;;;;4964378;28;20038;-66
2022/08/21 13:10:56;;;;;;;5.88;2.10;;;;;;;;;;4965659;28;20030;-65
2022/08/21 13:13:25;;;;;;;4.95;2.10;;;;;;;;;;4966827;28;20038;-66
2022/08/21 13:15:58;;;;;;;7.38;1.90;;;;;;;;;;4965754;28;20148;-68
2022/08/21 13:18:27;;;;;;;6.63;1.98;;;;;;;;;;4960833;28;20422;-68
2022/08/21 13:21:03;;;;;;;4.13;1.80;;;;;;;;;;4964179;28;20069;-68
2022/08/21 13:23:30;;;;;;;4.43;2.10;;;;;;;;;;4961206;28;20511;-68
2022/08/21 13:25:56;;;;;;;7.70;2.13;;;;;;;;;;4963402;28;20035;-68
2022/08/21 13:28:22;;;;;;;10.43;2.00;;;;;;;;;;4967007;28;20034;-67
2022/08/21 13:30:51;;;;;;;6.65;2.03;;;;;;;;;;4964593;28;20027;-68
2022/08/21 13:33:26;;;;;;;5.78;2.17;;;;;;;;;;4964505;28;20165;-67
2022/08/21 13:35:57;;;;;;;6.90;2.00;;;;;;;;;;4964480;28;20177;-68
2022/08/21 13:38:27;;;;;;;5.40;2.38;;;;;;;;;;4962357;28;20531;-68
2022/08/21 13:40:58;;;;;;;2.20;1.75;;;;;;;;;;4963091;28;20599;-68
2022/08/21 13:43:32;;;;;;;6.43;2.03;;;;;;;;;;4961963;28;20566;-68
2022/08/21 13:45:59;;;;;;;5.10;2.20;;;;;;;;;;4958086;28;20065;-67
2022/08/21 13:48:29;;;;;;;4.20;2.13;;;;;;;;;;4961192;28;20045;-67
2022/08/21 13:50:54;;;;;;;4.13;1.90;;;;;;;;;;4962222;28;20051;-67
2022/08/21 13:53:34;;;;;;;4.50;1.73;;;;;;;;;;4961408;28;20043;-67
2022/08/21 13:56:01;;;;;;;4.15;2.20;;;;;;;;;;4962467;28;20047;-67
2022/08/21 13:58:30;;;;;;;3.42;1.90;;;;;;;;;;4957809;28;20047;-67
2022/08/21 14:00:57;;;;;;;11.93;1.98;;;;;;;;;;4965215;28;20293;-68
2022/08/21 14:03:34;;;;;;;4.40;1.98;;;;;;;;;;4962024;28;20038;-68
2022/08/21 14:05:59;;;;;;;6.15;2.08;;;;;;;;;;4964530;28;20134;-67
2022/08/21 14:08:33;;;;;;;5.28;1.95;;;;;;;;;;4956891;28;20053;-66
2022/08/21 14:10:59;;;;;;;7.72;2.50;;;;;;;;;;4955621;28;20038;-67
2022/08/21 14:13:33;;;;;;;3.55;1.80;;;;;;;;;;4961092;28;20081;-68
2022/08/21 14:16:02;;;;;;;9.38;2.20;;;;;;;;;;4961644;28;20035;-66
2022/08/21 14:18:28;;;;;;;3.92;2.00;;;;;;;;;;4959326;28;20051;-67
2022/08/21 14:21:06;;;;;;;4.53;1.90;;;;;;;;;;4946125;28;20049;-66
2022/08/21 14:23:31;;;;;;;3.92;2.00;;;;;;;;;;4960979;28;20133;-67
2022/08/21 14:26:00;;;;;;;3.60;1.75;;;;;;;;;;4966177;28;20177;-66
2022/08/21 14:28:31;;;;;;;8.20;1.75;;;;;;;;;;4962295;28;20088;-67
2022/08/21 14:30:57;;;;;;;3.38;1.90;;;;;;;;;;4964096;28;20031;-68
2022/08/21 14:33:29;;;;;;;6.05;1.85;;;;;;;;;;4961693;28;20526;-69
2022/08/21 14:35:54;;;;;;;5.22;2.00;;;;;;;;;;4963290;28;20054;-68
2022/08/21 14:38:22;;;;;;;6.13;1.92;;;;;;;;;;4963184;28;20102;-67
2022/08/21 14:40:50;;;;;;;3.38;1.80;;;;;;;;;;4967500;28;20407;-69
2022/08/21 14:43:18;;;;;;;5.68;1.63;;;;;;;;;;4942582;28;20049;-67
2022/08/21 14:45:44;;;;;;;6.07;2.15;;;;;;;;;;4961586;28;20038;-67
2022/08/21 14:48:10;;;;;;;3.28;1.80;;;;;;;;;;4963673;28;20036;-68
2022/08/21 14:50:36;;;;;;;9.48;2.10;;;;;;;;;;4964224;28;20202;-68
2022/08/21 14:53:03;;;;;;;4.20;1.83;;;;;;;;;;4959376;28;20050;-69
2022/08/21 14:55:29;;;;;;;3.33;1.77;;;;;;;;;;4966376;28;20101;-69
2022/08/21 14:57:56;;;;;;;6.47;2.10;;;;;;;;;;4961771;28;20153;-68
2022/08/21 15:00:23;;;;;;;5.28;1.90;;;;;;;;;;4960272;28;20062;-70
2022/08/21 15:02:50;;;;;;;3.95;1.90;;;;;;;;;;4945690;28;20042;-68
2022/08/21 15:05:17;;;;;;;4.60;1.88;;;;;;;;;;4946443;28;20093;-67